createdAt,value
2023-04-10T00:02:25.876Z,11.40
2023-04-10T00:04:56.596Z,11.41
2023-04-10T00:07:27.583Z,11.41
2023-04-10T00:09:58.216Z,11.41
2023-04-10T00:12:28.832Z,11.42
2023-04-10T00:14:59.497Z,11.42
2023-04-10T00:17:30.006Z,11.42
2023-04-10T00:20:00.759Z,11.41
2023-04-10T00:22:31.592Z,11.39
2023-04-10T00:25:02.088Z,11.37
2023-04-10T00:27:32.520Z,11.35
2023-04-10T00:30:03.787Z,11.33
2023-04-10T00:32:34.455Z,11.32
2023-04-10T00:35:05.481Z,11.34
2023-04-10T00:37:35.955Z,11.36
2023-04-10T00:40:07.849Z,11.36
2023-04-10T00:42:38.466Z,11.35
2023-04-10T00:45:12.083Z,11.34
2023-04-10T00:47:41.567Z,11.33
2023-04-10T00:50:13.383Z,11.29
2023-04-10T00:52:44.081Z,11.27
2023-04-10T00:55:15.923Z,11.26
2023-04-10T00:57:47.714Z,11.25
2023-04-10T01:00:19.237Z,11.22
2023-04-10T01:02:50.449Z,11.20
2023-04-10T01:05:21.197Z,11.18
2023-04-10T01:08:05.670Z,11.18
2023-04-10T01:10:43.406Z,11.16
2023-04-10T01:13:27.317Z,11.18
2023-04-10T01:16:03.795Z,11.19
2023-04-10T01:18:42.771Z,11.20
2023-04-10T01:21:15.894Z,11.20
2023-04-10T01:24:16.879Z,11.20
2023-04-10T01:27:04.082Z,11.20
2023-04-10T01:29:37.193Z,11.18
2023-04-10T01:32:14.357Z,11.16
2023-04-10T01:34:47.883Z,11.14
2023-04-10T01:37:24.774Z,11.13
2023-04-10T01:40:00.459Z,11.10
2023-04-10T01:42:36.374Z,11.08
2023-04-10T01:45:10.488Z,11.05
2023-04-10T01:47:41.349Z,11.01
2023-04-10T01:50:12.985Z,10.99
2023-04-10T01:52:44.944Z,10.99
2023-04-10T01:55:22.012Z,11.00
2023-04-10T01:57:57.260Z,10.99
2023-04-10T02:00:28.891Z,10.99
2023-04-10T02:02:59.720Z,10.99
2023-04-10T02:05:42.470Z,10.99
2023-04-10T02:08:19.566Z,10.97
2023-04-10T02:10:57.774Z,10.95
2023-04-10T02:13:32.249Z,10.92
2023-04-10T02:16:08.530Z,10.89
2023-04-10T02:18:39.948Z,10.88
2023-04-10T02:21:11.881Z,10.85
2023-04-10T02:23:45.404Z,10.81
2023-04-10T02:26:16.307Z,10.79
2023-04-10T02:28:47.139Z,10.75
2023-04-10T02:31:18.233Z,10.72
2023-04-10T02:33:49.631Z,10.69
2023-04-10T02:36:21.757Z,10.69
2023-04-10T02:38:52.740Z,10.70
2023-04-10T02:41:25.829Z,10.69
2023-04-10T02:43:56.973Z,10.67
2023-04-10T02:46:30.597Z,10.65
2023-04-10T02:49:02.654Z,10.63
2023-04-10T02:51:37.715Z,10.61
2023-04-10T02:54:08.820Z,10.59
2023-04-10T02:56:40.582Z,10.57
2023-04-10T02:59:11.520Z,10.55
2023-04-10T03:01:42.665Z,10.52
2023-04-10T03:04:14.033Z,10.49
2023-04-10T03:06:45.574Z,10.46
2023-04-10T03:09:16.506Z,10.43
2023-04-10T03:11:47.444Z,10.41
2023-04-10T03:14:18.386Z,10.37
2023-04-10T03:16:50.527Z,10.34
2023-04-10T03:19:21.799Z,10.32
2023-04-10T03:21:52.739Z,10.28
2023-04-10T03:24:23.693Z,10.24
2023-04-10T03:26:57.050Z,10.21
2023-04-10T03:29:27.910Z,10.17
2023-04-10T03:31:59.632Z,10.14
2023-04-10T03:34:31.025Z,10.11
2023-04-10T03:37:01.853Z,10.08
2023-04-10T03:39:33.822Z,10.06
2023-04-10T03:42:04.861Z,10.08
2023-04-10T03:44:36.113Z,10.11
2023-04-10T03:47:07.352Z,10.11
2023-04-10T03:49:38.605Z,10.12
2023-04-10T03:52:10.565Z,10.14
2023-04-10T03:54:42.835Z,10.14
2023-04-10T03:57:21.354Z,10.20
2023-04-10T03:59:52.802Z,10.24
2023-04-10T04:02:23.677Z,10.25
2023-04-10T04:04:54.714Z,10.25
2023-04-10T04:07:45.299Z,10.26
2023-04-10T04:10:33.594Z,10.27
2023-04-10T04:13:15.802Z,10.25
2023-04-10T04:16:13.613Z,10.24
2023-04-10T04:18:50.757Z,10.22
2023-04-10T04:21:32.675Z,10.19
2023-04-10T04:24:23.265Z,10.17
2023-04-10T04:27:07.124Z,10.14
2023-04-10T04:29:50.872Z,10.13
2023-04-10T04:32:29.841Z,10.12
2023-04-10T04:35:09.798Z,10.13
2023-04-10T04:37:53.956Z,10.16
2023-04-10T04:40:53.609Z,10.19
2023-04-10T04:43:44.472Z,10.22
2023-04-10T04:46:44.516Z,10.24
2023-04-10T04:49:15.710Z,10.28
2023-04-10T04:51:51.462Z,10.33
2023-04-10T04:54:45.474Z,10.35
2023-04-10T04:57:34.344Z,10.32
2023-04-10T05:00:11.312Z,10.29
2023-04-10T05:03:00.994Z,10.26
2023-04-10T05:06:01.585Z,10.23
2023-04-10T05:08:53.868Z,10.21
2023-04-10T05:11:48.255Z,10.19
2023-04-10T05:14:23.691Z,10.18
2023-04-10T05:17:11.270Z,10.24
2023-04-10T05:19:47.504Z,10.34
2023-04-10T05:22:38.984Z,10.38
2023-04-10T05:25:38.408Z,10.37
2023-04-10T05:28:32.147Z,10.35
2023-04-10T05:31:25.754Z,10.36
2023-04-10T05:34:12.833Z,10.35
2023-04-10T05:37:12.994Z,10.35
2023-04-10T05:40:03.347Z,10.34
2023-04-10T05:42:41.747Z,10.34
2023-04-10T05:45:28.788Z,10.37
2023-04-10T05:48:18.966Z,10.40
2023-04-10T05:51:19.631Z,10.40
2023-04-10T05:54:18.621Z,10.38
2023-04-10T05:57:15.445Z,10.37
2023-04-10T05:59:51.916Z,10.38
2023-04-10T06:02:44.418Z,10.38
2023-04-10T06:05:21.332Z,10.38
2023-04-10T06:07:52.580Z,10.37
2023-04-10T06:10:23.752Z,10.36
2023-04-10T06:12:55.461Z,10.39
2023-04-10T06:15:26.354Z,10.47
2023-04-10T06:17:57.117Z,10.52
2023-04-10T06:20:27.840Z,10.55
2023-04-10T06:22:59.554Z,10.61
2023-04-10T06:25:30.813Z,10.63
2023-04-10T06:28:02.977Z,10.63
2023-04-10T06:30:34.775Z,10.63
2023-04-10T06:33:05.860Z,10.63
2023-04-10T06:35:36.616Z,10.65
2023-04-10T06:38:08.384Z,10.66
2023-04-10T06:40:39.337Z,10.68
2023-04-10T06:43:09.784Z,10.70
2023-04-10T06:45:43.140Z,10.74
2023-04-10T06:48:13.653Z,10.76
2023-04-10T06:50:44.146Z,10.78
2023-04-10T06:53:14.721Z,10.80
2023-04-10T06:55:45.647Z,10.83
2023-04-10T06:58:16.477Z,10.85
2023-04-10T07:00:48.024Z,10.88
2023-04-10T07:03:18.579Z,10.90
2023-04-10T07:05:49.227Z,10.92
2023-04-10T07:08:19.748Z,10.94
2023-04-10T07:10:50.487Z,11.01
2023-04-10T07:13:20.932Z,11.06
2023-04-10T07:15:51.670Z,11.09
2023-04-10T07:18:22.142Z,11.12
2023-04-10T07:20:54.176Z,11.15
2023-04-10T07:23:24.675Z,11.18
2023-04-10T07:25:55.092Z,11.19
2023-04-10T07:28:25.735Z,11.21
2023-04-10T07:30:56.557Z,11.22
2023-04-10T07:33:27.367Z,11.22
2023-04-10T07:35:57.902Z,11.24
2023-04-10T07:38:28.520Z,11.25
2023-04-10T07:41:00.460Z,11.30
2023-04-10T07:43:30.979Z,11.34
2023-04-10T07:46:01.729Z,11.37
2023-04-10T07:48:32.430Z,11.41
2023-04-10T07:51:03.063Z,11.44
2023-04-10T07:53:33.511Z,11.47
2023-04-10T07:56:04.395Z,11.51
2023-04-10T07:58:36.024Z,11.53
2023-04-10T08:01:07.824Z,11.53
2023-04-10T08:03:43.038Z,11.53
2023-04-10T08:06:14.192Z,11.54
2023-04-10T08:08:44.951Z,11.55
2023-04-10T08:11:27.989Z,11.60
2023-04-10T08:14:01.769Z,11.65
2023-04-10T08:16:34.620Z,11.70
2023-04-10T08:19:05.672Z,11.74
2023-04-10T08:21:36.141Z,11.77
2023-04-10T08:24:07.628Z,11.78
2023-04-10T08:26:38.076Z,11.78
2023-04-10T08:29:09.056Z,11.78
2023-04-10T08:31:39.479Z,11.78
2023-04-10T08:34:09.942Z,11.79
2023-04-10T08:36:40.416Z,11.79
2023-04-10T08:39:10.888Z,11.79
2023-04-10T08:41:43.215Z,11.81
2023-04-10T08:44:14.184Z,11.82
2023-04-10T08:46:46.039Z,11.81
2023-04-10T08:49:25.672Z,11.85
2023-04-10T08:52:00.110Z,11.89
2023-04-10T08:54:34.882Z,11.94
2023-04-10T08:57:09.744Z,11.97
2023-04-10T08:59:41.203Z,12.00
2023-04-10T09:02:11.813Z,12.03
2023-04-10T09:04:47.511Z,12.06
2023-04-10T09:07:18.543Z,12.09
2023-04-10T09:09:49.236Z,12.11
2023-04-10T09:12:19.784Z,12.13
2023-04-10T09:14:53.438Z,12.16
2023-04-10T09:17:25.515Z,12.18
2023-04-10T09:19:57.069Z,12.18
2023-04-10T09:22:34.495Z,12.18
2023-04-10T09:25:07.267Z,12.18
2023-04-10T09:27:40.134Z,12.23
2023-04-10T09:30:11.922Z,12.27
2023-04-10T09:32:44.256Z,12.30
2023-04-10T09:35:16.180Z,12.34
2023-04-10T09:37:48.269Z,12.38
2023-04-10T09:40:26.858Z,12.41
2023-04-10T09:42:57.905Z,12.44
2023-04-10T09:45:47.573Z,12.46
2023-04-10T09:48:18.242Z,12.49
2023-04-10T09:50:49.291Z,12.50
2023-04-10T09:53:21.145Z,12.51
2023-04-10T09:55:52.586Z,12.53
2023-04-10T09:58:25.449Z,12.55
2023-04-10T10:00:56.360Z,12.57
2023-04-10T10:03:27.236Z,12.60
2023-04-10T10:05:57.986Z,12.67
2023-04-10T10:08:28.763Z,12.72
2023-04-10T10:11:01.618Z,12.77
2023-04-10T10:13:42.561Z,12.84
2023-04-10T10:16:20.508Z,12.91
2023-04-10T10:18:58.431Z,12.96
2023-04-10T10:21:29.700Z,13.01
2023-04-10T10:24:02.718Z,13.06
2023-04-10T10:26:36.546Z,13.11
2023-04-10T10:29:10.896Z,13.16
2023-04-10T10:31:41.619Z,13.22
2023-04-10T10:34:13.641Z,13.27
2023-04-10T10:36:44.097Z,13.31
2023-04-10T10:39:30.489Z,13.34
2023-04-10T10:42:10.255Z,13.38
2023-04-10T10:44:49.038Z,13.42
2023-04-10T10:47:23.419Z,13.47
2023-04-10T10:49:59.520Z,13.50
2023-04-10T10:52:49.075Z,13.53
2023-04-10T10:55:38.461Z,13.58
2023-04-10T10:58:11.317Z,13.62
2023-04-10T11:01:11.142Z,13.66
2023-04-10T11:03:42.087Z,13.70
2023-04-10T11:06:13.853Z,13.73
2023-04-10T11:08:49.233Z,13.77
2023-04-10T11:11:24.108Z,13.81
2023-04-10T11:14:21.588Z,13.86
2023-04-10T11:16:52.165Z,13.92
2023-04-10T11:19:25.313Z,13.99
2023-04-10T11:22:10.676Z,14.04
2023-04-10T11:25:02.552Z,14.10
2023-04-10T11:27:46.350Z,14.17
2023-04-10T11:30:37.822Z,14.24
2023-04-10T11:33:08.414Z,14.29
2023-04-10T11:35:39.704Z,14.32
2023-04-10T11:38:18.587Z,14.35
2023-04-10T11:41:01.614Z,14.37
2023-04-10T11:43:33.779Z,14.38
2023-04-10T11:46:04.226Z,14.40
2023-04-10T11:48:35.262Z,14.40
2023-04-10T11:51:14.024Z,14.41
2023-04-10T11:53:45.122Z,14.43
2023-04-10T11:56:22.855Z,14.44
2023-04-10T11:58:54.722Z,14.44
2023-04-10T12:01:26.167Z,14.44
2023-04-10T12:03:56.746Z,14.46
2023-04-10T12:06:28.218Z,14.48
2023-04-10T12:08:58.790Z,14.52
2023-04-10T12:11:29.757Z,14.58
2023-04-10T12:14:00.479Z,14.62
2023-04-10T12:16:33.198Z,14.66
2023-04-10T12:19:04.961Z,14.70
2023-04-10T12:21:36.721Z,14.74
2023-04-10T12:24:07.613Z,14.76
2023-04-10T12:26:38.400Z,14.77
2023-04-10T12:29:10.043Z,14.77
2023-04-10T12:31:40.831Z,14.76
2023-04-10T12:34:12.034Z,14.77
2023-04-10T12:36:42.624Z,14.75
2023-04-10T12:39:25.504Z,14.73
2023-04-10T12:42:11.548Z,14.72
2023-04-10T12:44:54.462Z,14.71
2023-04-10T12:47:25.233Z,14.70
2023-04-10T12:50:13.491Z,14.69
2023-04-10T12:52:46.098Z,14.68
2023-04-10T12:55:18.917Z,14.67
2023-04-10T12:57:51.856Z,14.67
2023-04-10T13:00:22.645Z,14.67
2023-04-10T13:02:53.588Z,14.68
2023-04-10T13:05:25.204Z,14.70
2023-04-10T13:07:55.780Z,14.72
2023-04-10T13:10:26.611Z,14.72
2023-04-10T13:12:57.115Z,14.72
2023-04-10T13:15:27.544Z,14.73
2023-04-10T13:17:58.037Z,14.75
2023-04-10T13:20:28.802Z,14.77
2023-04-10T13:22:59.251Z,14.81
2023-04-10T13:25:29.738Z,14.87
2023-04-10T13:28:00.427Z,14.91
2023-04-10T13:30:31.343Z,14.97
2023-04-10T13:33:01.855Z,15.05
2023-04-10T13:35:32.416Z,15.13
2023-04-10T13:38:03.868Z,15.20
2023-04-10T13:40:34.414Z,15.25
2023-04-10T13:43:06.478Z,15.31
2023-04-10T13:45:37.054Z,15.37
2023-04-10T13:48:08.359Z,15.44
2023-04-10T13:50:38.794Z,15.47
2023-04-10T13:53:10.339Z,15.53
2023-04-10T13:55:43.798Z,15.60
2023-04-10T13:58:14.392Z,15.66
2023-04-10T14:00:46.658Z,15.72
2023-04-10T14:03:17.265Z,15.78
2023-04-10T14:05:48.212Z,15.82
2023-04-10T14:08:19.115Z,15.86
2023-04-10T14:10:50.921Z,15.90
2023-04-10T14:13:21.746Z,15.94
2023-04-10T14:15:53.819Z,15.99
2023-04-10T14:18:24.245Z,16.04
2023-04-10T14:20:54.650Z,16.07
2023-04-10T14:23:25.090Z,16.11
2023-04-10T14:25:55.664Z,16.17
2023-04-10T14:28:26.152Z,16.22
2023-04-10T14:30:56.602Z,16.26
2023-04-10T14:33:27.115Z,16.31
2023-04-10T14:35:57.566Z,16.35
2023-04-10T14:38:28.168Z,16.38
2023-04-10T14:40:58.586Z,16.41
2023-04-10T14:43:29.069Z,16.43
2023-04-10T14:45:59.518Z,16.45
2023-04-10T14:48:30.197Z,16.48
2023-04-10T14:51:01.448Z,16.52
2023-04-10T14:53:31.905Z,16.56
2023-04-10T14:56:02.496Z,16.59
2023-04-10T14:58:32.959Z,16.61
2023-04-10T15:01:03.402Z,16.62
2023-04-10T15:03:33.972Z,16.64
2023-04-10T15:06:04.848Z,16.64
2023-04-10T15:08:35.269Z,16.65
2023-04-10T15:11:06.487Z,16.66
2023-04-10T15:13:37.848Z,16.69
2023-04-10T15:16:09.570Z,16.71
2023-04-10T15:18:39.986Z,16.73
2023-04-10T15:21:10.501Z,16.74
2023-04-10T15:23:41.194Z,16.75
2023-04-10T15:26:14.975Z,16.76
2023-04-10T15:28:45.675Z,16.77
2023-04-10T15:31:16.639Z,16.78
2023-04-10T15:33:47.122Z,16.79
2023-04-10T15:36:18.106Z,16.82
2023-04-10T15:38:50.175Z,16.83
2023-04-10T15:41:21.049Z,16.86
2023-04-10T15:43:51.577Z,16.88
2023-04-10T15:46:22.252Z,16.89
2023-04-10T15:48:52.907Z,16.89
2023-04-10T15:51:23.368Z,16.89
2023-04-10T15:53:54.649Z,16.89
2023-04-10T15:56:25.450Z,16.89
2023-04-10T15:58:55.962Z,16.89
2023-04-10T16:01:26.427Z,16.87
2023-04-10T16:03:57.353Z,16.88
2023-04-10T16:06:28.287Z,16.88
2023-04-10T16:08:58.699Z,16.88
2023-04-10T16:11:29.162Z,16.88
2023-04-10T16:13:59.558Z,16.87
2023-04-10T16:16:30.667Z,16.85
2023-04-10T16:19:01.911Z,16.85
2023-04-10T16:21:32.701Z,16.83
2023-04-10T16:24:03.271Z,16.82
2023-04-10T16:26:33.807Z,16.81
2023-04-10T16:29:04.274Z,16.78
2023-04-10T16:31:34.846Z,16.77
2023-04-10T16:34:05.378Z,16.75
2023-04-10T16:36:35.854Z,16.74
2023-04-10T16:39:07.437Z,16.72
2023-04-10T16:41:37.904Z,16.70
2023-04-10T16:44:08.544Z,16.69
2023-04-10T16:46:39.074Z,16.67
2023-04-10T16:49:09.600Z,16.66
2023-04-10T16:51:40.119Z,16.65
2023-04-10T16:54:11.015Z,16.64
2023-04-10T16:56:41.518Z,16.62
2023-04-10T16:59:11.931Z,16.60
2023-04-10T17:01:42.442Z,16.59
2023-04-10T17:04:13.632Z,16.58
2023-04-10T17:06:44.216Z,16.55
2023-04-10T17:09:14.656Z,16.53
2023-04-10T17:11:45.311Z,16.52
2023-04-10T17:14:16.179Z,16.50
2023-04-10T17:16:46.802Z,16.48
2023-04-10T17:19:17.655Z,16.46
2023-04-10T17:21:48.145Z,16.44
2023-04-10T17:24:18.612Z,16.42
2023-04-10T17:26:49.238Z,16.41
2023-04-10T17:29:19.693Z,16.39
2023-04-10T17:31:50.136Z,16.38
2023-04-10T17:34:20.639Z,16.36
2023-04-10T17:36:51.108Z,16.34
2023-04-10T17:39:21.540Z,16.32
2023-04-10T17:41:52.108Z,16.30
2023-04-10T17:44:22.543Z,16.28
2023-04-10T17:46:54.303Z,16.26
2023-04-10T17:49:25.289Z,16.24
2023-04-10T17:51:56.178Z,16.22
2023-04-10T17:54:26.637Z,16.20
2023-04-10T17:56:57.140Z,16.18
2023-04-10T17:59:30.627Z,16.16
2023-04-10T18:02:01.164Z,16.13
2023-04-10T18:04:31.782Z,16.12
2023-04-10T18:07:02.221Z,16.10
2023-04-10T18:09:32.718Z,16.09
2023-04-10T18:12:03.275Z,16.08
2023-04-10T18:14:33.764Z,16.06
2023-04-10T18:17:05.693Z,16.04
2023-04-10T18:19:36.232Z,16.03
2023-04-10T18:22:06.700Z,16.01
2023-04-10T18:24:37.193Z,15.99
2023-04-10T18:27:07.728Z,15.97
2023-04-10T18:29:38.187Z,15.95
2023-04-10T18:32:09.193Z,15.93
2023-04-10T18:34:39.814Z,15.92
2023-04-10T18:37:10.274Z,15.91
2023-04-10T18:39:40.722Z,15.90
2023-04-10T18:42:11.675Z,15.88
2023-04-10T18:44:42.317Z,15.87
2023-04-10T18:47:12.820Z,15.84
2023-04-10T18:49:43.866Z,15.82
2023-04-10T18:52:14.453Z,15.80
2023-04-10T18:54:46.332Z,15.78
2023-04-10T18:57:16.762Z,15.76
2023-04-10T18:59:47.238Z,15.75
2023-04-10T19:02:17.900Z,15.72
2023-04-10T19:04:48.726Z,15.71
2023-04-10T19:07:19.440Z,15.70
2023-04-10T19:09:49.969Z,15.68
2023-04-10T19:12:20.448Z,15.67
2023-04-10T19:14:50.924Z,15.65
2023-04-10T19:17:21.898Z,15.64
2023-04-10T19:19:53.307Z,15.63
2023-04-10T19:22:23.834Z,15.61
2023-04-10T19:24:54.310Z,15.60
2023-04-10T19:27:25.727Z,15.58
2023-04-10T19:29:56.242Z,15.56
2023-04-10T19:32:26.837Z,15.54
2023-04-10T19:34:57.339Z,15.53
2023-04-10T19:37:27.863Z,15.52
2023-04-10T19:40:00.394Z,15.51
2023-04-10T19:42:30.911Z,15.50
2023-04-10T19:45:01.386Z,15.49
2023-04-10T19:47:31.849Z,15.48
2023-04-10T19:50:02.843Z,15.46
2023-04-10T19:52:33.358Z,15.44
2023-04-10T19:55:03.868Z,15.43
2023-04-10T19:57:34.437Z,15.41
2023-04-10T20:00:05.272Z,15.38
2023-04-10T20:02:43.133Z,15.36
2023-04-10T20:05:14.024Z,15.33
2023-04-10T20:07:44.752Z,15.31
2023-04-10T20:10:16.434Z,15.28
2023-04-10T20:12:47.057Z,15.25
2023-04-10T20:15:17.727Z,15.22
2023-04-10T20:17:48.275Z,15.20
2023-04-10T20:20:18.802Z,15.17
2023-04-10T20:22:49.257Z,15.15
2023-04-10T20:25:19.793Z,15.13
2023-04-10T20:27:50.281Z,15.11
2023-04-10T20:30:20.945Z,15.09
2023-04-10T20:32:51.496Z,15.08
2023-04-10T20:35:22.514Z,15.07
2023-04-10T20:37:53.593Z,15.05
2023-04-10T20:40:24.104Z,15.04
2023-04-10T20:42:55.160Z,15.02
2023-04-10T20:45:25.749Z,15.01
2023-04-10T20:47:58.305Z,14.99
2023-04-10T20:50:28.888Z,14.98
2023-04-10T20:52:59.357Z,14.97
2023-04-10T20:55:29.933Z,14.95
2023-04-10T20:58:00.361Z,14.94
2023-04-10T21:00:31.654Z,14.93
2023-04-10T21:03:02.290Z,14.92
2023-04-10T21:05:32.955Z,14.91
2023-04-10T21:08:03.444Z,14.89
2023-04-10T21:10:34.743Z,14.88
2023-04-10T21:13:05.760Z,14.87
2023-04-10T21:15:36.218Z,14.85
2023-04-10T21:18:07.365Z,14.82
2023-04-10T21:20:37.832Z,14.80
2023-04-10T21:23:08.286Z,14.78
2023-04-10T21:25:39.984Z,14.76
2023-04-10T21:28:10.446Z,14.74
2023-04-10T21:30:40.867Z,14.73
2023-04-10T21:33:11.278Z,14.71
2023-04-10T21:35:45.153Z,14.70
2023-04-10T21:38:15.824Z,14.69
2023-04-10T21:40:53.072Z,14.67
2023-04-10T21:43:23.737Z,14.66
2023-04-10T21:45:54.334Z,14.64
2023-04-10T21:48:24.906Z,14.63
2023-04-10T21:50:55.786Z,14.62
2023-04-10T21:53:26.346Z,14.61
2023-04-10T21:55:57.187Z,14.59
2023-04-10T21:58:27.624Z,14.56
2023-04-10T22:00:58.301Z,14.54
2023-04-10T22:03:28.930Z,14.52
2023-04-10T22:05:59.633Z,14.49
2023-04-10T22:08:30.356Z,14.47
2023-04-10T22:11:00.882Z,14.45
2023-04-10T22:13:31.465Z,14.42
2023-04-10T22:16:02.949Z,14.42
2023-04-10T22:18:33.873Z,14.40
2023-04-10T22:21:04.405Z,14.38
2023-04-10T22:23:35.279Z,14.37
2023-04-10T22:26:05.898Z,14.34
2023-04-10T22:28:36.366Z,14.32
2023-04-10T22:31:07.392Z,14.31
2023-04-10T22:33:38.309Z,14.30
2023-04-10T22:36:10.609Z,14.27
2023-04-10T22:38:41.155Z,14.25
2023-04-10T22:41:11.940Z,14.22
2023-04-10T22:43:42.362Z,14.18
2023-04-10T22:46:13.126Z,14.16
2023-04-10T22:48:46.316Z,14.14
2023-04-10T22:51:17.586Z,14.12
2023-04-10T22:53:48.023Z,14.10
2023-04-10T22:56:19.442Z,14.06
2023-04-10T22:58:49.892Z,14.04
2023-04-10T23:01:20.822Z,14.03
2023-04-10T23:03:53.966Z,14.00
2023-04-10T23:06:24.598Z,13.98
2023-04-10T23:08:55.308Z,13.95
2023-04-10T23:11:26.418Z,13.94
2023-04-10T23:13:57.025Z,13.92
2023-04-10T23:16:27.523Z,13.91
2023-04-10T23:18:58.025Z,13.88
2023-04-10T23:21:28.585Z,13.87
2023-04-10T23:23:59.075Z,13.84
2023-04-10T23:26:32.445Z,13.83
2023-04-10T23:29:03.390Z,13.82
2023-04-10T23:31:33.849Z,13.81
2023-04-10T23:34:04.407Z,13.80
2023-04-10T23:36:34.975Z,13.78
2023-04-10T23:39:05.449Z,13.77
2023-04-10T23:41:35.888Z,13.75
2023-04-10T23:44:06.454Z,13.73
2023-04-10T23:46:37.131Z,13.71
2023-04-10T23:49:07.641Z,13.69
2023-04-10T23:51:38.107Z,13.67
2023-04-10T23:54:09.432Z,13.65
2023-04-10T23:56:40.289Z,13.63
2023-04-10T23:59:10.762Z,13.60
